createdAt,value
2022-10-17T00:00:09.652Z,59.38
2022-10-17T00:02:36.572Z,58.98
2022-10-17T00:05:03.750Z,59.82
2022-10-17T00:07:31.052Z,59.57
2022-10-17T00:09:58.343Z,59.26
2022-10-17T00:12:25.363Z,60.02
2022-10-17T00:14:52.345Z,59.98
2022-10-17T00:17:19.334Z,59.32
2022-10-17T00:19:46.292Z,60.05
2022-10-17T00:22:13.685Z,59.59
2022-10-17T00:24:40.673Z,59.76
2022-10-17T00:27:07.870Z,59.95
2022-10-17T00:29:34.892Z,59.55
2022-10-17T00:32:01.803Z,59.95
2022-10-17T00:34:29.740Z,59.47
2022-10-17T00:36:57.017Z,60.07
2022-10-17T00:39:25.258Z,60.12
2022-10-17T00:41:52.199Z,60.13
2022-10-17T00:44:32.032Z,59.55
2022-10-17T00:47:01.345Z,60.22
2022-10-17T00:49:29.998Z,59.74
2022-10-17T00:51:59.223Z,60.28
2022-10-17T00:54:29.062Z,59.48
2022-10-17T00:56:56.658Z,59.56
2022-10-17T00:59:28.005Z,60.34
2022-10-17T01:02:06.317Z,60.32
2022-10-17T01:04:33.459Z,60.26
2022-10-17T01:07:00.712Z,60.53
2022-10-17T01:09:27.762Z,59.92
2022-10-17T01:12:10.809Z,60.31
2022-10-17T01:14:45.079Z,60.06
2022-10-17T01:17:24.288Z,59.79
2022-10-17T01:20:11.487Z,60.07
2022-10-17T01:22:47.443Z,59.73
2022-10-17T01:25:26.590Z,59.92
2022-10-17T01:28:09.682Z,59.95
2022-10-17T01:30:55.378Z,60.46
2022-10-17T01:33:28.444Z,60.63
2022-10-17T01:36:03.281Z,60.66
2022-10-17T01:38:42.565Z,60.20
2022-10-17T01:41:23.525Z,60.83
2022-10-17T01:44:03.804Z,60.26
2022-10-17T01:46:34.740Z,60.83
2022-10-17T01:49:02.961Z,60.46
2022-10-17T01:51:38.887Z,60.98
2022-10-17T01:54:12.139Z,61.08
2022-10-17T01:56:41.185Z,60.66
2022-10-17T01:59:13.956Z,60.59
2022-10-17T02:01:42.368Z,60.88
2022-10-17T02:04:11.162Z,60.57
2022-10-17T02:06:38.177Z,60.82
2022-10-17T02:09:18.075Z,60.91
2022-10-17T02:12:05.462Z,60.61
2022-10-17T02:14:37.815Z,61.18
2022-10-17T02:17:25.225Z,60.70
2022-10-17T02:19:59.882Z,60.54
2022-10-17T02:22:30.586Z,60.96
2022-10-17T02:24:57.592Z,60.82
2022-10-17T02:27:24.984Z,61.02
2022-10-17T02:30:00.745Z,61.10
2022-10-17T02:32:48.001Z,60.96
2022-10-17T02:35:21.808Z,61.31
2022-10-17T02:37:49.867Z,61.11
2022-10-17T02:40:20.560Z,61.00
2022-10-17T02:42:48.670Z,61.42
2022-10-17T02:45:16.037Z,60.91
2022-10-17T02:47:49.091Z,61.37
2022-10-17T02:50:16.324Z,61.06
2022-10-17T02:52:51.227Z,61.63
2022-10-17T02:55:25.349Z,61.88
2022-10-17T02:57:58.341Z,61.08
2022-10-17T03:00:25.769Z,61.25
2022-10-17T03:02:53.767Z,61.10
2022-10-17T03:05:22.154Z,61.64
2022-10-17T03:07:49.241Z,61.68
2022-10-17T03:10:16.813Z,61.28
2022-10-17T03:12:43.984Z,61.51
2022-10-17T03:15:12.681Z,61.06
2022-10-17T03:17:41.629Z,61.35
2022-10-17T03:20:09.950Z,61.32
2022-10-17T03:22:37.070Z,61.09
2022-10-17T03:25:05.660Z,61.74
2022-10-17T03:27:35.492Z,61.25
2022-10-17T03:30:02.705Z,61.60
2022-10-17T03:32:33.491Z,61.83
2022-10-17T03:35:00.433Z,61.74
2022-10-17T03:37:27.924Z,62.11
2022-10-17T03:39:55.416Z,61.59
2022-10-17T03:42:22.398Z,61.86
2022-10-17T03:44:49.447Z,62.18
2022-10-17T03:47:17.317Z,61.97
2022-10-17T03:49:45.525Z,62.11
2022-10-17T03:52:13.533Z,61.62
2022-10-17T03:54:40.727Z,62.18
2022-10-17T03:57:07.792Z,61.74
2022-10-17T03:59:36.225Z,61.82
2022-10-17T04:02:08.179Z,62.11
2022-10-17T04:04:35.694Z,62.08
2022-10-17T04:07:03.642Z,61.71
2022-10-17T04:09:30.804Z,61.93
2022-10-17T04:12:11.067Z,61.79
2022-10-17T04:14:38.477Z,61.94
2022-10-17T04:17:05.602Z,62.43
2022-10-17T04:19:33.918Z,61.63
2022-10-17T04:22:03.281Z,62.60
2022-10-17T04:24:33.384Z,62.18
2022-10-17T04:27:11.737Z,62.12
2022-10-17T04:29:44.893Z,61.95
2022-10-17T04:32:17.937Z,61.83
2022-10-17T04:34:51.191Z,62.31
2022-10-17T04:37:21.181Z,61.82
2022-10-17T04:39:50.361Z,61.64
2022-10-17T04:42:17.367Z,62.19
2022-10-17T04:44:44.952Z,61.95
2022-10-17T04:47:13.518Z,61.92
2022-10-17T04:52:16.329Z,62.38
2022-10-17T04:54:45.429Z,62.15
2022-10-17T04:57:14.429Z,61.86
2022-10-17T04:59:45.863Z,61.39
2022-10-17T05:02:41.963Z,61.95
2022-10-17T05:05:09.384Z,62.20
2022-10-17T05:07:39.966Z,61.65
2022-10-17T05:10:13.773Z,61.70
2022-10-17T05:12:45.031Z,62.05
2022-10-17T05:15:13.454Z,61.16
2022-10-17T05:17:41.284Z,61.46
2022-10-17T05:20:08.908Z,61.67
2022-10-17T05:22:39.651Z,61.65
2022-10-17T05:25:10.492Z,61.63
2022-10-17T05:27:38.368Z,61.60
2022-10-17T05:30:06.344Z,61.15
2022-10-17T05:32:35.373Z,61.79
2022-10-17T05:35:04.341Z,60.96
2022-10-17T05:37:32.683Z,61.05
2022-10-17T05:40:01.197Z,60.96
2022-10-17T05:42:31.040Z,61.50
2022-10-17T05:44:58.678Z,61.50
2022-10-17T05:47:27.004Z,60.89
2022-10-17T05:49:54.159Z,60.95
2022-10-17T05:52:28.273Z,60.97
2022-10-17T05:55:10.498Z,60.21
2022-10-17T05:57:37.628Z,60.45
2022-10-17T06:00:08.489Z,60.11
2022-10-17T06:02:41.696Z,60.39
2022-10-17T06:05:10.708Z,59.63
2022-10-17T06:07:37.895Z,60.11
2022-10-17T06:10:06.342Z,59.79
2022-10-17T06:12:33.502Z,60.14
2022-10-17T06:15:00.807Z,59.95
2022-10-17T06:17:29.317Z,60.06
2022-10-17T06:19:57.469Z,60.01
2022-10-17T06:22:24.967Z,60.16
2022-10-17T06:24:53.851Z,59.93
2022-10-17T06:27:21.441Z,59.97
2022-10-17T06:29:48.741Z,59.89
2022-10-17T06:32:17.008Z,59.79
2022-10-17T06:34:46.584Z,59.66
2022-10-17T06:37:13.519Z,59.74
2022-10-17T06:39:41.716Z,59.84
2022-10-17T06:42:21.082Z,59.88
2022-10-17T06:44:56.022Z,59.55
2022-10-17T06:47:45.357Z,59.64
2022-10-17T06:50:27.996Z,59.20
2022-10-17T06:53:31.954Z,59.85
2022-10-17T06:56:27.322Z,59.14
2022-10-17T06:59:12.838Z,58.90
2022-10-17T07:01:48.437Z,58.48
2022-10-17T07:04:16.346Z,58.38
2022-10-17T07:06:43.880Z,58.05
2022-10-17T07:09:20.762Z,57.51
2022-10-17T07:11:48.011Z,57.21
2022-10-17T07:14:18.320Z,56.17
2022-10-17T07:16:46.633Z,56.41
2022-10-17T07:19:18.321Z,57.00
2022-10-17T07:21:45.631Z,56.90
2022-10-17T07:24:13.511Z,56.96
2022-10-17T07:26:45.701Z,57.63
2022-10-17T07:29:13.249Z,57.35
2022-10-17T07:31:45.983Z,57.28
2022-10-17T07:34:13.144Z,56.94
2022-10-17T07:36:40.597Z,57.64
2022-10-17T07:39:08.631Z,57.29
2022-10-17T07:41:37.870Z,57.28
2022-10-17T07:44:05.477Z,57.57
2022-10-17T07:46:37.521Z,57.53
2022-10-17T07:49:05.714Z,57.47
2022-10-17T07:51:34.151Z,57.38
2022-10-17T07:54:01.184Z,57.69
2022-10-17T07:56:29.727Z,57.92
2022-10-17T08:01:29.243Z,57.93
2022-10-17T08:03:56.221Z,58.09
2022-10-17T08:06:23.240Z,58.08
2022-10-17T08:08:50.232Z,58.35
2022-10-17T08:11:17.262Z,58.59
2022-10-17T08:13:44.151Z,58.60
2022-10-17T08:16:12.148Z,58.71
2022-10-17T08:18:39.972Z,58.72
2022-10-17T08:21:08.492Z,58.98
2022-10-17T08:23:36.439Z,59.11
2022-10-17T08:26:04.966Z,59.10
2022-10-17T08:28:32.066Z,59.26
2022-10-17T08:31:03.339Z,59.04
2022-10-17T08:33:30.366Z,59.51
2022-10-17T08:35:58.518Z,59.48
2022-10-17T08:38:27.798Z,59.49
2022-10-17T08:40:58.052Z,59.53
2022-10-17T08:43:35.353Z,59.62
2022-10-17T08:46:03.920Z,59.55
2022-10-17T08:48:42.634Z,59.61
2022-10-17T08:51:11.110Z,59.55
2022-10-17T08:53:44.058Z,60.02
2022-10-17T08:56:19.917Z,60.04
2022-10-17T08:58:52.191Z,60.13
2022-10-17T09:01:37.768Z,60.41
2022-10-17T09:04:10.533Z,60.29
2022-10-17T09:06:57.755Z,60.34
2022-10-17T09:09:36.052Z,60.55
2022-10-17T09:12:08.901Z,61.21
2022-10-17T09:14:58.286Z,61.83
2022-10-17T09:17:38.414Z,62.34
2022-10-17T09:20:10.050Z,63.26
2022-10-17T09:22:41.510Z,63.41
2022-10-17T09:25:12.560Z,64.00
2022-10-17T09:27:45.725Z,64.86
2022-10-17T09:30:47.505Z,65.28
2022-10-17T09:33:28.536Z,65.58
2022-10-17T09:36:09.515Z,65.77
2022-10-17T09:38:55.443Z,66.12
2022-10-17T09:41:50.278Z,66.13
2022-10-17T09:44:22.608Z,66.62
2022-10-17T09:46:58.978Z,66.82
2022-10-17T09:49:33.335Z,67.24
2022-10-17T09:52:01.725Z,67.56
2022-10-17T09:54:34.287Z,67.80
2022-10-17T09:57:02.821Z,67.81
2022-10-17T09:59:30.819Z,68.70
2022-10-17T10:02:07.979Z,69.42
2022-10-17T10:04:46.839Z,70.14
2022-10-17T10:07:26.902Z,70.84
2022-10-17T10:09:56.912Z,71.60
2022-10-17T10:12:32.802Z,72.22
2022-10-17T10:15:00.357Z,72.64
2022-10-17T10:17:27.431Z,73.17
2022-10-17T10:19:54.346Z,73.90
2022-10-17T10:22:23.964Z,74.75
2022-10-17T10:25:09.879Z,75.24
2022-10-17T10:27:37.254Z,75.79
2022-10-17T10:30:04.509Z,76.43
2022-10-17T10:32:33.547Z,76.74
2022-10-17T10:35:00.686Z,77.07
2022-10-17T10:37:30.175Z,77.11
2022-10-17T10:39:58.706Z,78.06
2022-10-17T10:42:34.060Z,78.24
2022-10-17T10:45:04.123Z,78.59
2022-10-17T10:47:32.890Z,78.22
2022-10-17T10:50:18.558Z,78.74
2022-10-17T10:53:05.723Z,79.29
2022-10-17T10:55:36.778Z,79.68
2022-10-17T10:58:10.000Z,79.64
2022-10-17T11:00:38.207Z,79.67
2022-10-17T11:03:12.767Z,79.98
2022-10-17T11:05:46.145Z,80.77
2022-10-17T11:08:24.763Z,80.37
2022-10-17T11:11:02.278Z,80.89
2022-10-17T11:13:34.952Z,81.42
2022-10-17T11:16:07.763Z,80.87
2022-10-17T11:18:53.416Z,81.28
2022-10-17T11:21:23.962Z,81.27
2022-10-17T11:24:00.573Z,81.62
2022-10-17T11:26:29.070Z,81.99
2022-10-17T11:28:57.226Z,82.68
2022-10-17T11:31:45.391Z,82.53
2022-10-17T11:34:19.618Z,82.43
2022-10-17T11:36:48.336Z,83.03
2022-10-17T11:39:17.919Z,83.38
2022-10-17T11:41:48.893Z,83.16
2022-10-17T11:44:24.903Z,83.52
2022-10-17T11:46:55.488Z,83.82
2022-10-17T11:52:01.947Z,84.41
2022-10-17T11:54:41.989Z,84.84
2022-10-17T11:57:14.691Z,84.68
2022-10-17T11:59:45.035Z,84.98
2022-10-17T12:02:15.866Z,85.39
2022-10-17T12:04:55.049Z,85.47
2022-10-17T12:07:35.281Z,85.21
2022-10-17T12:10:17.335Z,85.22
2022-10-17T12:12:44.988Z,85.63
2022-10-17T12:15:11.927Z,85.76
2022-10-17T12:17:41.070Z,85.83
2022-10-17T12:20:25.719Z,86.12
2022-10-17T12:22:54.207Z,86.13
2022-10-17T12:25:24.174Z,85.98
2022-10-17T12:27:51.351Z,86.93
2022-10-17T12:30:23.331Z,86.62
2022-10-17T12:33:22.015Z,86.76
2022-10-17T12:36:08.903Z,87.07
2022-10-17T12:38:35.891Z,87.11
2022-10-17T12:41:03.761Z,87.16
2022-10-17T12:43:30.944Z,87.36
2022-10-17T12:45:59.261Z,87.39
2022-10-17T12:48:38.822Z,87.61
2022-10-17T12:51:36.404Z,87.77
2022-10-17T12:54:12.895Z,88.01
2022-10-17T12:56:45.157Z,88.51
2022-10-17T12:59:17.931Z,88.33
2022-10-17T13:01:47.581Z,88.73
2022-10-17T13:04:15.853Z,88.57
2022-10-17T13:06:48.256Z,88.70
2022-10-17T13:09:21.038Z,88.83
2022-10-17T13:11:49.617Z,88.87
2022-10-17T13:14:18.998Z,89.20
2022-10-17T13:17:15.299Z,89.53
2022-10-17T13:19:44.000Z,89.31
2022-10-17T13:22:18.219Z,89.81
2022-10-17T13:24:45.672Z,89.84
2022-10-17T13:27:23.242Z,90.22
2022-10-17T13:29:50.174Z,89.82
2022-10-17T13:32:17.450Z,90.17
2022-10-17T13:34:45.067Z,90.43
2022-10-17T13:37:13.616Z,90.47
2022-10-17T13:39:54.852Z,90.42
2022-10-17T13:42:30.646Z,90.21
2022-10-17T13:44:58.559Z,90.33
2022-10-17T13:47:29.760Z,90.49
2022-10-17T13:49:57.911Z,90.84
2022-10-17T13:52:27.114Z,90.83
2022-10-17T13:54:56.882Z,91.13
2022-10-17T13:57:25.377Z,90.71
2022-10-17T13:59:55.111Z,90.67
2022-10-17T14:02:27.018Z,90.92
2022-10-17T14:05:17.283Z,90.69
2022-10-17T14:10:37.617Z,91.58
2022-10-17T14:13:05.948Z,91.06
2022-10-17T14:15:34.602Z,91.51
2022-10-17T14:18:07.525Z,91.65
2022-10-17T14:23:29.078Z,91.44
2022-10-17T14:26:06.717Z,91.29
2022-10-17T14:28:34.561Z,91.38
2022-10-17T14:31:21.782Z,91.63
2022-10-17T14:33:51.096Z,91.90
2022-10-17T14:36:19.017Z,91.89
2022-10-17T14:38:47.914Z,91.84
2022-10-17T14:41:42.523Z,92.42
2022-10-17T14:44:17.013Z,92.04
2022-10-17T14:46:48.448Z,92.38
2022-10-17T14:49:24.306Z,92.07
2022-10-17T14:52:12.365Z,92.11
2022-10-17T14:54:44.739Z,92.30
2022-10-17T14:57:34.563Z,92.47
2022-10-17T15:00:01.633Z,92.35
2022-10-17T15:02:31.078Z,92.73
2022-10-17T15:04:58.343Z,93.01
2022-10-17T15:07:25.465Z,92.87
2022-10-17T15:09:53.460Z,92.60
2022-10-17T15:12:25.410Z,92.85
2022-10-17T15:14:52.868Z,92.96
2022-10-17T15:17:24.988Z,92.56
2022-10-17T15:19:52.094Z,92.65
2022-10-17T15:22:19.047Z,92.92
2022-10-17T15:24:46.428Z,92.82
2022-10-17T15:27:21.401Z,92.56
2022-10-17T15:29:48.873Z,93.04
2022-10-17T15:32:15.822Z,92.86
2022-10-17T15:34:43.349Z,92.98
2022-10-17T15:37:24.614Z,92.97
2022-10-17T15:39:55.776Z,93.30
2022-10-17T15:42:26.534Z,93.14
2022-10-17T15:44:53.765Z,93.10
2022-10-17T15:47:31.575Z,92.80
2022-10-17T15:49:59.429Z,92.89
2022-10-17T15:52:26.473Z,93.18
2022-10-17T15:54:54.345Z,92.96
2022-10-17T15:57:23.335Z,92.79
2022-10-17T15:59:51.218Z,93.08
2022-10-17T16:02:19.037Z,92.80
2022-10-17T16:04:46.745Z,92.76
2022-10-17T16:07:13.765Z,93.03
2022-10-17T16:09:40.882Z,93.02
2022-10-17T16:12:12.515Z,93.04
2022-10-17T16:14:39.551Z,92.58
2022-10-17T16:17:06.514Z,92.34
2022-10-17T16:19:33.516Z,92.39
2022-10-17T16:22:04.356Z,92.35
2022-10-17T16:24:31.888Z,92.47
2022-10-17T16:26:58.851Z,92.92
2022-10-17T16:29:25.944Z,92.37
2022-10-17T16:31:53.539Z,92.32
2022-10-17T16:34:20.588Z,92.41
2022-10-17T16:36:50.446Z,92.08
2022-10-17T16:41:57.739Z,91.70
2022-10-17T16:44:29.339Z,91.94
2022-10-17T16:46:59.289Z,91.62
2022-10-17T16:49:44.487Z,92.12
2022-10-17T16:52:14.997Z,91.86
2022-10-17T16:54:52.371Z,91.13
2022-10-17T16:57:22.493Z,91.18
2022-10-17T17:02:43.327Z,90.64
2022-10-17T17:05:15.758Z,91.05
2022-10-17T17:10:37.717Z,91.06
2022-10-17T17:13:16.395Z,91.16
2022-10-17T17:19:27.821Z,91.05
2022-10-17T17:21:54.805Z,90.94
2022-10-17T17:24:21.851Z,90.79
2022-10-17T17:26:52.776Z,90.53
2022-10-17T17:29:20.132Z,90.66
2022-10-17T17:31:47.288Z,89.77
2022-10-17T17:34:17.284Z,90.43
2022-10-17T17:36:45.451Z,90.08
2022-10-17T17:39:13.806Z,90.35
2022-10-17T17:41:41.441Z,89.95
2022-10-17T17:44:12.455Z,90.14
2022-10-17T17:46:43.967Z,90.07
2022-10-17T17:49:11.753Z,89.85
2022-10-17T17:51:38.977Z,89.71
2022-10-17T17:54:05.966Z,89.50
2022-10-17T17:56:32.930Z,89.75
2022-10-17T17:59:00.872Z,90.24
2022-10-17T18:01:29.344Z,89.63
2022-10-17T18:03:59.057Z,89.32
2022-10-17T18:06:26.874Z,89.28
2022-10-17T18:08:58.131Z,89.04
2022-10-17T18:11:25.692Z,89.36
2022-10-17T18:14:11.698Z,88.70
2022-10-17T18:16:38.768Z,89.10
2022-10-17T18:19:07.216Z,89.15
2022-10-17T18:21:34.606Z,88.42
2022-10-17T18:24:01.914Z,88.92
2022-10-17T18:26:28.937Z,88.77
2022-10-17T18:28:56.427Z,88.71
2022-10-17T18:31:28.310Z,88.06
2022-10-17T18:33:56.666Z,88.35
2022-10-17T18:36:26.148Z,88.61
2022-10-17T18:38:53.748Z,88.67
2022-10-17T18:41:21.755Z,88.01
2022-10-17T18:43:49.537Z,88.73
2022-10-17T18:46:18.550Z,87.71
2022-10-17T18:48:45.892Z,88.45
2022-10-17T18:51:14.129Z,88.27
2022-10-17T18:53:42.286Z,88.22
2022-10-17T18:56:09.766Z,87.84
2022-10-17T18:58:37.603Z,87.44
2022-10-17T19:01:05.467Z,87.73
2022-10-17T19:03:32.663Z,86.89
2022-10-17T19:06:03.996Z,87.51
2022-10-17T19:08:31.028Z,87.42
2022-10-17T19:10:58.002Z,87.46
2022-10-17T19:13:24.998Z,87.05
2022-10-17T19:15:52.071Z,87.32
2022-10-17T19:18:19.019Z,87.46
2022-10-17T19:20:46.265Z,87.22
2022-10-17T19:23:13.445Z,87.61
2022-10-17T19:25:40.517Z,87.43
2022-10-17T19:28:13.553Z,87.50
2022-10-17T19:31:12.917Z,86.65
2022-10-17T19:33:53.528Z,87.27
2022-10-17T19:36:33.233Z,87.05
2022-10-17T19:39:06.553Z,87.22
2022-10-17T19:41:37.153Z,86.98
2022-10-17T19:44:04.301Z,87.13
2022-10-17T19:46:34.416Z,87.09
2022-10-17T19:49:03.145Z,87.15
2022-10-17T19:51:38.320Z,87.10
2022-10-17T19:54:12.313Z,87.02
2022-10-17T19:56:42.114Z,87.27
2022-10-17T19:59:13.449Z,87.04
2022-10-17T20:01:43.097Z,86.83
2022-10-17T20:04:13.489Z,87.25
2022-10-17T20:06:43.810Z,86.79
2022-10-17T20:09:17.009Z,86.96
2022-10-17T20:11:50.231Z,86.96
2022-10-17T20:14:25.359Z,87.01
2022-10-17T20:16:57.920Z,87.23
2022-10-17T20:19:34.617Z,86.93
2022-10-17T20:22:02.483Z,86.78
2022-10-17T20:24:30.466Z,86.97
2022-10-17T20:26:57.465Z,87.13
2022-10-17T20:29:26.702Z,87.00
2022-10-17T20:31:53.917Z,86.67
2022-10-17T20:34:21.472Z,86.83
2022-10-17T20:36:53.872Z,86.59
2022-10-17T20:39:33.624Z,87.19
2022-10-17T20:42:06.163Z,86.80
2022-10-17T20:44:38.976Z,86.91
2022-10-17T20:47:16.233Z,86.84
2022-10-17T20:49:46.852Z,86.66
2022-10-17T20:52:14.722Z,86.74
2022-10-17T20:54:41.723Z,86.69
2022-10-17T20:57:10.509Z,86.71
2022-10-17T20:59:42.928Z,86.54
2022-10-17T21:02:19.125Z,86.57
2022-10-17T21:04:52.446Z,86.61
2022-10-17T21:07:21.466Z,86.75
2022-10-17T21:10:35.089Z,86.45
2022-10-17T21:13:23.242Z,86.62
2022-10-17T21:16:04.032Z,86.45
2022-10-17T21:18:49.569Z,86.33
2022-10-17T21:24:10.608Z,86.22
2022-10-17T21:27:00.206Z,86.44
2022-10-17T21:29:28.569Z,86.30
2022-10-17T21:32:47.328Z,86.28
2022-10-17T21:35:31.737Z,86.30
2022-10-17T21:38:24.426Z,86.12
2022-10-17T21:41:07.290Z,86.27
2022-10-17T21:43:39.736Z,86.04
2022-10-17T21:46:17.226Z,86.46
2022-10-17T21:48:49.061Z,86.28
2022-10-17T21:51:24.200Z,86.30
2022-10-17T21:53:51.770Z,86.03
2022-10-17T21:56:20.340Z,86.27
2022-10-17T21:58:51.169Z,85.88
2022-10-17T22:01:20.787Z,85.99
2022-10-17T22:03:51.924Z,86.04
2022-10-17T22:09:36.905Z,85.87
2022-10-17T22:12:05.618Z,85.96
2022-10-17T22:14:32.543Z,85.64
2022-10-17T22:16:59.658Z,85.68
2022-10-17T22:19:27.455Z,85.80
2022-10-17T22:21:55.111Z,86.00
2022-10-17T22:24:24.635Z,85.66
2022-10-17T22:26:53.398Z,86.11
2022-10-17T22:29:23.001Z,85.82
2022-10-17T22:31:50.476Z,85.56
2022-10-17T22:34:20.375Z,85.96
2022-10-17T22:36:49.069Z,85.44
2022-10-17T22:39:16.195Z,85.97
2022-10-17T22:41:43.839Z,85.59
2022-10-17T22:44:10.816Z,85.72
2022-10-17T22:46:40.517Z,85.85
2022-10-17T22:49:07.494Z,85.43
2022-10-17T22:51:34.565Z,85.54
2022-10-17T22:54:01.514Z,85.50
2022-10-17T22:56:28.741Z,85.24
2022-10-17T22:58:55.718Z,85.40
2022-10-17T23:01:23.326Z,85.24
2022-10-17T23:03:51.133Z,85.01
2022-10-17T23:06:18.372Z,85.17
2022-10-17T23:08:45.417Z,85.37
2022-10-17T23:11:13.013Z,85.19
2022-10-17T23:13:41.111Z,85.23
2022-10-17T23:16:08.636Z,84.99
2022-10-17T23:18:35.659Z,85.21
2022-10-17T23:21:02.774Z,85.18
2022-10-17T23:23:29.787Z,85.05
2022-10-17T23:26:03.161Z,84.89
2022-10-17T23:28:30.971Z,84.71
2022-10-17T23:30:57.946Z,84.75
2022-10-17T23:33:24.851Z,84.90
2022-10-17T23:35:51.759Z,84.72
2022-10-17T23:38:18.669Z,84.73
2022-10-17T23:40:45.629Z,84.73
2022-10-17T23:43:12.619Z,84.97
2022-10-17T23:48:07.441Z,85.05
2022-10-17T23:50:34.460Z,84.63
2022-10-17T23:53:01.753Z,84.62
2022-10-17T23:55:28.765Z,84.47
2022-10-17T23:57:55.706Z,84.81
